Time,TemperatureF,DewpointF,PressureIn,WindDirection,WindDirectionDegrees,WindSpeedMPH,WindSpeedGustMPH,Humidity,HourlyPrecipIn,Conditions,Clouds,dailyrainin,SoftwareType,DateUTC
2013-03-09 00:05:00,40.3,36.1,29.63,WSW,247,6.7,-999.0,85,-99.99,,,0.00,Acu-Link.com,2013-03-09 07:05:00,
2013-03-09 00:20:00,40.1,35.7,29.64,West,270,12.5,-999.0,84,-99.99,,,0.00,Acu-Link.com,2013-03-09 07:20:00,
2013-03-09 00:35:00,40.1,35.7,29.65,West,270,10.3,-999.0,84,-99.99,,,0.00,Acu-Link.com,2013-03-09 07:35:00,
2013-03-09 00:50:00,39.7,35.6,29.65,West,270,5.8,-999.0,85,-99.99,,,0.00,Acu-Link.com,2013-03-09 07:50:00,
2013-03-09 01:05:00,39.7,35.0,29.64,WSW,247,2.7,-999.0,83,-99.99,,,0.00,Acu-Link.com,2013-03-09 08:05:00,
2013-03-09 01:21:00,40.1,33.2,29.65,WNW,292,3.8,-999.0,76,-99.99,,,0.00,Acu-Link.com,2013-03-09 08:21:00,
2013-03-09 01:36:00,40.5,31.1,29.64,West,270,4.3,-999.0,69,-99.99,,,0.00,Acu-Link.com,2013-03-09 08:36:00,
2013-03-09 01:51:00,40.1,29.3,29.65,West,270,6.3,-999.0,65,-99.99,,,0.00,Acu-Link.com,2013-03-09 08:51:00,
2013-03-09 02:06:00,39.6,28.8,29.64,West,270,6.3,-999.0,65,-99.99,,,0.00,Acu-Link.com,2013-03-09 09:06:00,
2013-03-09 02:21:00,39.2,28.4,29.63,WSW,247,4.7,-999.0,65,-99.99,,,0.00,Acu-Link.com,2013-03-09 09:21:00,
2013-03-09 02:37:00,38.5,28.1,29.63,SW,225,2.2,-999.0,66,-99.99,,,0.00,Acu-Link.com,2013-03-09 09:37:00,
2013-03-09 02:52:00,37.6,28.0,29.63,SW,225,2.7,-999.0,68,-99.99,,,0.00,Acu-Link.com,2013-03-09 09:52:00,
2013-03-09 03:07:00,37.0,27.8,29.62,SW,225,4.3,-999.0,69,-99.99,,,0.00,Acu-Link.com,2013-03-09 10:07:00,
2013-03-09 03:22:00,36.9,27.7,29.63,South,180,4.3,-999.0,69,-99.99,,,0.00,Acu-Link.com,2013-03-09 10:22:00,
2013-03-09 03:38:00,36.7,28.5,29.63,SSW,202,3.1,-999.0,72,-99.99,,,0.00,Acu-Link.com,2013-03-09 10:38:00,
2013-03-09 03:53:00,36.5,27.3,29.62,North,0,3.8,-999.0,69,-99.99,,,0.00,Acu-Link.com,2013-03-09 10:53:00,
2013-03-09 04:08:00,36.9,26.2,29.62,West,270,5.1,-999.0,65,-99.99,,,0.00,Acu-Link.com,2013-03-09 11:08:00,
2013-03-09 04:23:00,36.5,26.6,29.62,West,270,5.1,-999.0,67,-99.99,,,0.00,Acu-Link.com,2013-03-09 11:23:00,
2013-03-09 04:38:00,35.2,26.1,29.63,WSW,247,9.4,-999.0,69,-99.99,,,0.00,Acu-Link.com,2013-03-09 11:38:00,
2013-03-09 04:54:00,35.1,25.2,29.62,West,270,9.4,-999.0,67,-99.99,,,0.00,Acu-Link.com,2013-03-09 11:54:00,
2013-03-09 05:09:00,34.9,25.1,29.64,West,270,5.8,-999.0,67,-99.99,,,0.00,Acu-Link.com,2013-03-09 12:09:00,
2013-03-09 05:24:00,34.2,25.1,29.65,SW,225,4.7,-999.0,69,-99.99,,,0.00,Acu-Link.com,2013-03-09 12:24:00,
2013-03-09 05:39:00,33.8,24.4,29.65,SW,225,3.8,-999.0,68,-99.99,,,0.00,Acu-Link.com,2013-03-09 12:39:00,
2013-03-09 05:54:00,33.1,23.7,29.64,West,270,2.7,-999.0,68,-99.99,,,0.00,Acu-Link.com,2013-03-09 12:54:00,
2013-03-09 06:10:00,32.5,23.2,29.65,SW,225,3.1,-999.0,68,-99.99,,,0.00,Acu-Link.com,2013-03-09 13:10:00,
2013-03-09 06:25:00,32.9,22.8,29.66,WNW,292,13.4,-999.0,66,-99.99,,,0.00,Acu-Link.com,2013-03-09 13:25:00,
2013-03-09 06:40:00,33.1,22.6,29.66,WNW,292,3.8,-999.0,65,-99.99,,,0.00,Acu-Link.com,2013-03-09 13:40:00,
2013-03-09 06:55:00,34.3,24.5,29.67,North,0,4.3,-999.0,67,-99.99,,,0.00,Acu-Link.com,2013-03-09 13:55:00,
2013-03-09 07:10:00,34.2,24.7,29.67,NE,45,4.7,-999.0,68,-99.99,,,0.00,Acu-Link.com,2013-03-09 14:10:00,
2013-03-09 07:26:00,34.0,24.2,29.67,NNW,337,2.2,-999.0,67,-99.99,,,0.00,Acu-Link.com,2013-03-09 14:26:00,
2013-03-09 07:41:00,33.6,24.2,29.68,WNW,292,0.0,-999.0,68,-99.99,,,0.00,Acu-Link.com,2013-03-09 14:41:00,
2013-03-09 07:56:00,36.3,25.3,29.67,ESE,112,3.8,-999.0,64,-99.99,,,0.00,Acu-Link.com,2013-03-09 14:56:00,
2013-03-09 08:11:00,37.0,23.2,29.68,West,270,1.6,-999.0,57,-99.99,,,0.00,Acu-Link.com,2013-03-09 15:11:00,
2013-03-09 08:27:00,39.0,23.4,29.68,NNW,337,1.1,-999.0,53,-99.99,,,0.00,Acu-Link.com,2013-03-09 15:27:00,
2013-03-09 08:42:00,37.9,22.8,29.68,WSW,247,1.1,-999.0,54,-99.99,,,0.00,Acu-Link.com,2013-03-09 15:42:00,
2013-03-09 08:57:00,38.1,22.1,29.68,NW,315,3.8,-999.0,52,-99.99,,,0.00,Acu-Link.com,2013-03-09 15:57:00,
2013-03-09 09:12:00,39.6,23.4,29.68,West,270,6.7,-999.0,52,-99.99,,,0.00,Acu-Link.com,2013-03-09 16:12:00,
2013-03-09 09:27:00,40.5,24.2,29.68,West,270,8.3,-999.0,52,-99.99,,,0.00,Acu-Link.com,2013-03-09 16:27:00,
2013-03-09 09:43:00,42.1,25.3,29.67,West,270,7.8,-999.0,51,-99.99,,,0.00,Acu-Link.com,2013-03-09 16:43:00,
2013-03-09 09:58:00,42.1,24.8,29.67,West,270,11.0,-999.0,50,-99.99,,,0.00,Acu-Link.com,2013-03-09 16:58:00,
2013-03-09 10:13:00,41.9,25.6,29.67,WNW,292,4.3,-999.0,52,-99.99,,,0.00,Acu-Link.com,2013-03-09 17:13:00,
2013-03-09 10:28:00,42.3,24.5,29.66,West,270,6.7,-999.0,49,-99.99,,,0.00,Acu-Link.com,2013-03-09 17:28:00,
2013-03-09 10:43:00,42.3,23.5,29.66,WNW,292,3.1,-999.0,47,-99.99,,,0.00,Acu-Link.com,2013-03-09 17:43:00,
2013-03-09 10:59:00,43.0,22.6,29.66,WSW,247,5.8,-999.0,44,-99.99,,,0.00,Acu-Link.com,2013-03-09 17:59:00,
2013-03-09 11:14:00,42.6,22.8,29.66,West,270,11.4,-999.0,45,-99.99,,,0.00,Acu-Link.com,2013-03-09 18:14:00,
2013-03-09 11:29:00,43.9,23.9,29.66,SSW,202,6.3,-999.0,45,-99.99,,,0.00,Acu-Link.com,2013-03-09 18:29:00,
2013-03-09 11:44:00,46.4,24.0,29.65,WSW,247,7.8,-999.0,41,-99.99,,,0.00,Acu-Link.com,2013-03-09 18:44:00,
2013-03-09 11:59:00,47.3,22.4,29.64,West,270,10.3,-999.0,37,-99.99,,,0.00,Acu-Link.com,2013-03-09 18:59:00,
2013-03-09 12:15:00,44.8,20.7,29.64,West,270,5.8,-999.0,38,-99.99,,,0.00,Acu-Link.com,2013-03-09 19:15:00,
2013-03-09 12:30:00,44.4,22.8,29.63,SW,225,7.8,-999.0,42,-99.99,,,0.00,Acu-Link.com,2013-03-09 19:30:00,
2013-03-09 12:45:00,45.1,22.9,29.63,NNW,337,7.4,-999.0,41,-99.99,,,0.00,Acu-Link.com,2013-03-09 19:45:00,
2013-03-09 13:00:00,46.9,21.4,29.62,West,270,9.4,-999.0,36,-99.99,,,0.00,Acu-Link.com,2013-03-09 20:00:00,
2013-03-09 13:16:00,43.5,24.1,29.62,West,270,11.4,-999.0,46,-99.99,,,0.00,Acu-Link.com,2013-03-09 20:16:00,
2013-03-09 13:31:00,45.7,20.9,29.61,West,270,6.7,-999.0,37,-99.99,,,0.00,Acu-Link.com,2013-03-09 20:31:00,
2013-03-09 13:46:00,45.1,19.1,29.60,WSW,247,10.3,-999.0,35,-99.99,,,0.00,Acu-Link.com,2013-03-09 20:46:00,
2013-03-09 14:02:00,43.2,23.8,29.60,West,270,4.3,-999.0,46,-99.99,,,0.00,Acu-Link.com,2013-03-09 21:02:00,
2013-03-09 14:17:00,46.0,19.3,29.60,NNW,337,11.4,-999.0,34,-99.99,,,0.00,Acu-Link.com,2013-03-09 21:17:00,
2013-03-09 14:32:00,47.1,19.5,29.60,West,270,11.9,-999.0,33,-99.99,,,0.00,Acu-Link.com,2013-03-09 21:32:00,
2013-03-09 14:47:00,47.7,20.7,29.60,West,270,7.8,-999.0,34,-99.99,,,0.00,Acu-Link.com,2013-03-09 21:47:00,
2013-03-09 15:03:00,46.4,19.6,29.61,NW,315,13.4,-999.0,34,-99.99,,,0.00,Acu-Link.com,2013-03-09 22:03:00,
2013-03-09 15:18:00,46.4,20.3,29.61,WNW,292,6.7,-999.0,35,-99.99,,,0.00,Acu-Link.com,2013-03-09 22:18:00,
2013-03-09 15:33:00,48.2,20.5,29.61,WNW,292,11.9,-999.0,33,-99.99,,,0.00,Acu-Link.com,2013-03-09 22:33:00,
2013-03-09 15:48:00,46.9,19.4,29.62,West,270,11.4,-999.0,33,-99.99,,,0.00,Acu-Link.com,2013-03-09 22:48:00,
2013-03-09 16:03:00,46.4,18.2,29.62,WSW,247,8.9,-999.0,32,-99.99,,,0.00,Acu-Link.com,2013-03-09 23:03:00,
2013-03-09 16:19:00,46.4,18.2,29.62,West,270,13.4,-999.0,32,-99.99,,,0.00,Acu-Link.com,2013-03-09 23:19:00,
2013-03-09 16:34:00,45.7,18.9,29.63,West,270,6.7,-999.0,34,-99.99,,,0.00,Acu-Link.com,2013-03-09 23:34:00,
2013-03-09 16:49:00,45.3,19.3,29.64,West,270,10.3,-999.0,35,-99.99,,,0.00,Acu-Link.com,2013-03-09 23:49:00,
2013-03-09 17:04:00,45.5,20.1,29.64,WSW,247,13.0,-999.0,36,-99.99,,,0.00,Acu-Link.com,2013-03-10 00:04:00,
2013-03-09 17:20:00,45.0,19.6,29.64,WNW,292,11.4,-999.0,36,-99.99,,,0.00,Acu-Link.com,2013-03-10 00:20:00,
2013-03-09 17:35:00,44.8,20.1,29.65,WNW,292,7.8,-999.0,37,-99.99,,,0.00,Acu-Link.com,2013-03-10 00:35:00,
2013-03-09 17:50:00,43.3,28.3,29.68,North,0,6.3,-999.0,55,-99.99,,,0.00,Acu-Link.com,2013-03-10 00:50:00,
2013-03-09 18:05:00,42.3,29.0,29.68,NE,45,5.1,-999.0,59,-99.99,,,0.00,Acu-Link.com,2013-03-10 01:05:00,
2013-03-09 18:20:00,42.1,28.8,29.69,NE,45,5.8,-999.0,59,-99.99,,,0.00,Acu-Link.com,2013-03-10 01:20:00,
2013-03-09 18:36:00,42.1,27.1,29.70,North,0,6.3,-999.0,55,-99.99,,,0.00,Acu-Link.com,2013-03-10 01:36:00,
2013-03-09 18:51:00,41.7,27.6,29.71,NNW,337,6.7,-999.0,57,-99.99,,,0.00,Acu-Link.com,2013-03-10 01:51:00,
2013-03-09 19:06:00,41.4,27.7,29.72,NNW,337,8.9,-999.0,58,-99.99,,,0.00,Acu-Link.com,2013-03-10 02:06:00,
2013-03-09 19:21:00,40.3,29.5,29.73,NNE,22,6.3,-999.0,65,-99.99,,,0.00,Acu-Link.com,2013-03-10 02:21:00,
2013-03-09 19:36:00,39.4,30.1,29.74,NNW,337,4.7,-999.0,69,-99.99,,,0.00,Acu-Link.com,2013-03-10 02:36:00,
2013-03-09 19:52:00,39.2,29.9,29.75,North,0,3.8,-999.0,69,-99.99,,,0.00,Acu-Link.com,2013-03-10 02:52:00,
2013-03-09 20:07:00,39.2,29.9,29.76,NE,45,2.7,-999.0,69,-99.99,,,0.00,Acu-Link.com,2013-03-10 03:07:00,
2013-03-09 20:22:00,39.2,30.3,29.76,WNW,292,5.8,-999.0,70,-99.99,,,0.00,Acu-Link.com,2013-03-10 03:22:00,
2013-03-09 20:37:00,39.0,30.4,29.76,NW,315,5.1,-999.0,71,-99.99,,,0.00,Acu-Link.com,2013-03-10 03:37:00,
2013-03-09 20:52:00,38.8,30.9,29.77,North,0,6.7,-999.0,73,-99.99,,,0.00,Acu-Link.com,2013-03-10 03:52:00,
2013-03-09 21:08:00,38.5,30.9,29.78,NNE,22,3.8,-999.0,74,-99.99,,,0.00,Acu-Link.com,2013-03-10 04:08:00,
2013-03-09 21:23:00,38.1,30.9,29.79,North,0,4.3,-999.0,75,-99.99,,,0.00,Acu-Link.com,2013-03-10 04:23:00,
2013-03-09 21:38:00,37.8,30.9,29.79,NNE,22,1.6,-999.0,76,-99.99,,,0.00,Acu-Link.com,2013-03-10 04:38:00,
2013-03-09 21:53:00,37.8,31.2,29.79,North,0,3.8,-999.0,77,-99.99,,,0.00,Acu-Link.com,2013-03-10 04:53:00,
2013-03-09 22:09:00,37.4,30.9,29.80,NE,45,1.6,-999.0,77,-99.99,,,0.00,Acu-Link.com,2013-03-10 05:09:00,
2013-03-09 22:24:00,37.4,30.9,29.80,WNW,292,2.7,-999.0,77,-99.99,,,0.00,Acu-Link.com,2013-03-10 05:24:00,
2013-03-09 22:39:00,37.6,31.0,29.80,North,0,1.6,-999.0,77,-99.99,,,0.00,Acu-Link.com,2013-03-10 05:39:00,
2013-03-09 22:54:00,37.4,30.9,29.80,ENE,67,2.2,-999.0,77,-99.99,,,0.00,Acu-Link.com,2013-03-10 05:54:00,
2013-03-09 23:09:00,37.2,31.0,29.81,NE,45,0.0,-999.0,78,-99.99,,,0.00,Acu-Link.com,2013-03-10 06:09:00,
2013-03-09 23:25:00,37.0,30.2,29.80,North,0,1.6,-999.0,76,-99.99,,,0.00,Acu-Link.com,2013-03-10 06:25:00,
2013-03-09 23:40:00,37.0,29.9,29.80,ENE,67,1.6,-999.0,75,-99.99,,,0.00,Acu-Link.com,2013-03-10 06:40:00,
2013-03-09 23:55:00,37.2,31.0,29.80,ENE,67,1.6,-999.0,78,-99.99,,,0.00,Acu-Link.com,2013-03-10 06:55:00,